Avalon — T8A2542 — position and weather

sailwx.info

Track history (hours):
 
Tides and Currents Weather Stations Pressure Air Temp Water Temp Dewpoint Dewpoint Depression Visibility Wind Speed Wind Dir Waves Ship Positions

Avalon

Last reported at 2018-Apr-17 07:51 UTC. Time now 2018-Apr-21 07:57 UTC.
Position N 40°53' E 029°10'.

Length 109 m; draft 3.4 m.

Type: Cargo ship. MMSI: 511460000.

Date/timePositionNaut miles runAvg speedWind from/ knotsBaromVisibWave heightAir tempDewpointWater temp
2018-Apr-17 07:51N 40°53' E 029°10'0 0.0
2018-Apr-17 07:15N 40°53' E 029°10'0 0.1
2018-Apr-17 06:57N 40°53' E 029°10'0 0.1
2018-Apr-17 06:27N 40°53' E 029°10'  
2018-Apr-09 13:38N 45°08' E 036°30'2 8.5
2018-Apr-09 13:25N 45°09' E 036°30'3 8.1
2018-Apr-09 13:01N 45°13' E 036°28'4 7.8
2018-Apr-09 12:31N 45°17' E 036°28'4 7.2
2018-Apr-09 12:01N 45°19' E 036°32'4 7.8
2018-Apr-09 11:31N 45°20' E 036°38'3 5.4
2018-Apr-09 11:00N 45°22' E 036°40'3 5.6
2018-Apr-09 10:31N 45°25' E 036°41'3 6.8
2018-Apr-09 10:00N 45°28' E 036°43'1 2.3
2018-Apr-09 09:30N 45°29' E 036°44'0 0.0
2018-Apr-09 09:01N 45°29' E 036°44'0 0.0
2018-Apr-09 08:30N 45°29' E 036°44'0 0.0
2018-Apr-09 08:01N 45°29' E 036°44'0 0.0
2018-Apr-09 07:30N 45°29' E 036°44'1 1.4
2018-Apr-09 06:57N 45°30' E 036°44'4 6.9
2018-Apr-09 06:26N 45°33' E 036°45'  
Track history (hours):
 
Tides and Currents Weather Stations Pressure Air Temp Water Temp Dewpoint Dewpoint Depression Visibility Wind Speed Wind Dir Waves Ship Positions

Avalon

Last reported at 2018-Apr-17 07:51 UTC. Time now 2018-Apr-21 07:57 UTC.
Position N 40°53' E 029°10'.

Length 109 m; draft 3.4 m.

Type: Cargo ship. MMSI: 511460000.

Date/timePositionNaut miles runAvg speedWind from/ knotsBaromVisibWave heightAir tempDewpointWater temp
2018-Apr-17 07:51N 40°53' E 029°10'0 0.0
2018-Apr-17 07:15N 40°53' E 029°10'0 0.1
2018-Apr-17 06:57N 40°53' E 029°10'0 0.1
2018-Apr-17 06:27N 40°53' E 029°10'  
2018-Apr-09 13:38N 45°08' E 036°30'2 8.5
2018-Apr-09 13:25N 45°09' E 036°30'3 8.1
2018-Apr-09 13:01N 45°13' E 036°28'4 7.8
2018-Apr-09 12:31N 45°17' E 036°28'4 7.2
2018-Apr-09 12:01N 45°19' E 036°32'4 7.8
2018-Apr-09 11:31N 45°20' E 036°38'3 5.4
2018-Apr-09 11:00N 45°22' E 036°40'3 5.6
2018-Apr-09 10:31N 45°25' E 036°41'3 6.8
2018-Apr-09 10:00N 45°28' E 036°43'1 2.3
2018-Apr-09 09:30N 45°29' E 036°44'0 0.0
2018-Apr-09 09:01N 45°29' E 036°44'0 0.0
2018-Apr-09 08:30N 45°29' E 036°44'0 0.0
2018-Apr-09 08:01N 45°29' E 036°44'0 0.0
2018-Apr-09 07:30N 45°29' E 036°44'1 1.4
2018-Apr-09 06:57N 45°30' E 036°44'4 6.9
2018-Apr-09 06:26N 45°33' E 036°45'  

Dump ship's entire track history